^^
Your Local Weather - Clay, NY Station Historical Data
Daily Summary for November 20, 2017 Units:  English    Metric   Both
« Previous Day
Next Day »
Daily Weekly Monthly Yearly Custom
  High: Low: Average:
Temperature: 34.3 °F 26.7 °F 30.5 °F
Dew Point: 30.3 °F 24.7 °F 26.8 °F
Humidity: 93% 71% 86%
Wind Speed: 5.0mph 0.0mph 1.5mph
Wind Gust: 16.0mph - -
Wind- - WSW
Pressure: 29.96 in 29.77 in -
Precipitation: 0.05 in    
Historical Graphs
 
 
Tabular Data for November 20, 2017
Time Temperature Dew Point Pressure Wind Wind Speed Wind Gust Humidity Rainfall Rate (Hourly) solar
00:00 29.9 °F 26.5 °F 29.77 in WSW 2.0 mph 2.0 mph 87% 0.00 in 0 W/m2
00:12 29.9 °F 26.2 °F 29.78 in West 2.0 mph 3.0 mph 86% 0.00 in 0 W/m2
00:18 29.9 °F 26.2 °F 29.78 in WNW 2.0 mph 3.0 mph 86% 0.00 in 0 W/m2
00:30 30.0 °F 25.5 °F 29.79 in WNW 1.0 mph 1.0 mph 83% 0.00 in 0 W/m2
00:36 30.2 °F 25.1 °F 29.79 in NW 2.0 mph 7.0 mph 81% 0.00 in 0 W/m2
00:42 30.4 °F 25.3 °F 29.79 in NW 3.0 mph 3.0 mph 81% 0.00 in 0 W/m2
00:48 30.3 °F 25.2 °F 29.79 in WSW 2.0 mph 3.0 mph 81% 0.00 in 0 W/m2
00:54 30.2 °F 25.1 °F 29.80 in WNW 1.0 mph 1.0 mph 81% 0.00 in 0 W/m2
01:00 30.1 °F 25.3 °F 29.80 in SW 2.0 mph 3.0 mph 82% 0.00 in 0 W/m2
01:06 29.9 °F 25.7 °F 29.80 in West 2.0 mph 3.0 mph 84% 0.00 in 0 W/m2
01:12 29.6 °F 25.6 °F 29.80 in WSW 3.0 mph 3.0 mph 85% 0.00 in 0 W/m2
01:18 29.3 °F 25.9 °F 29.80 in West 3.0 mph 5.0 mph 87% 0.00 in 0 W/m2
01:24 29.1 °F 25.7 °F 29.81 in SW 3.0 mph 4.0 mph 87% 0.00 in 0 W/m2
01:30 29.1 °F 26.0 °F 29.82 in West 2.0 mph 2.0 mph 88% 0.00 in 0 W/m2
01:36 29.0 °F 26.2 °F 29.82 in SW 2.0 mph 3.0 mph 89% 0.00 in 0 W/m2
01:44 28.9 °F 26.3 °F 29.82 in WSW 1.0 mph 4.0 mph 90% 0.00 in 0 W/m2
01:50 28.9 °F 26.3 °F 29.82 in WSW 1.0 mph 3.0 mph 90% 0.00 in 0 W/m2
01:56 28.9 °F 26.6 °F 29.83 in West 1.0 mph 3.0 mph 91% 0.00 in 0 W/m2
02:08 28.8 °F 26.5 °F 29.83 in WSW 1.0 mph 2.0 mph 91% 0.00 in 0 W/m2
02:14 28.8 °F 26.5 °F 29.83 in WSW 1.0 mph 1.0 mph 91% 0.00 in 0 W/m2
02:26 28.8 °F 26.5 °F 29.84 in WSW 1.0 mph 3.0 mph 91% 0.00 in 0 W/m2
02:32 28.8 °F 26.5 °F 29.84 in WSW 1.0 mph 1.0 mph 91% 0.00 in 0 W/m2
02:38 28.7 °F 26.4 °F 29.84 in WNW 1.0 mph 3.0 mph 91% 0.00 in 0 W/m2
02:44 28.7 °F 26.7 °F 29.85 in WSW 1.0 mph 2.0 mph 92% 0.00 in 0 W/m2
02:50 28.7 °F 26.7 °F 29.85 in SW 1.0 mph 1.0 mph 92% 0.00 in 0 W/m2
02:56 28.8 °F 26.8 °F 29.85 in WSW 1.0 mph 1.0 mph 92% 0.00 in 0 W/m2
03:02 28.8 °F 26.8 °F 29.85 in SW 1.0 mph 1.0 mph 92% 0.00 in 0 W/m2
03:22 28.8 °F 26.8 °F 29.86 in WSW 2.0 mph 2.0 mph 92% 0.00 in 0 W/m2
03:28 28.8 °F 26.8 °F 29.86 in West 1.0 mph 3.0 mph 92% 0.00 in 0 W/m2
03:34 28.7 °F 26.7 °F 29.86 in West 1.0 mph 1.0 mph 92% 0.00 in 0 W/m2
03:46 28.5 °F 26.5 °F 29.87 in West 1.0 mph 1.0 mph 92% 0.00 in 0 W/m2
03:52 28.5 °F 26.5 °F 29.87 in Calm     92% 0.00 in 0 W/m2
03:58 28.4 °F 26.4 °F 29.87 in Calm     92% 0.00 in 0 W/m2
04:04 28.4 °F 26.4 °F 29.87 in Calm     92% 0.00 in 0 W/m2
04:10 28.3 °F 26.3 °F 29.87 in Calm     92% 0.00 in 0 W/m2
04:16 28.3 °F 26.3 °F 29.87 in Calm     92% 0.00 in 0 W/m2
04:22 28.3 °F 26.3 °F 29.88 in Calm     92% 0.00 in 0 W/m2
04:28 28.2 °F 26.2 °F 29.88 in Calm     92% 0.00 in 0 W/m2
04:34 28.2 °F 26.2 °F 29.88 in Calm     92% 0.00 in 0 W/m2
04:46 28.2 °F 26.2 °F 29.88 in Calm   1.0 mph 92% 0.00 in 0 W/m2
04:52 28.3 °F 26.3 °F 29.88 in Calm   1.0 mph 92% 0.00 in 0 W/m2
04:58 28.4 °F 26.4 °F 29.89 in West 1.0 mph 2.0 mph 92% 0.00 in 0 W/m2
05:10 28.5 °F 26.5 °F 29.90 in West 1.0 mph 1.0 mph 92% 0.00 in 0 W/m2
05:16 28.6 °F 26.6 °F 29.90 in West 1.0 mph 2.0 mph 92% 0.00 in 0 W/m2
05:28 28.6 °F 26.6 °F 29.90 in Calm   1.0 mph 92% 0.00 in 0 W/m2
05:34 28.6 °F 26.6 °F 29.90 in Calm     92% 0.00 in 0 W/m2
05:46 28.7 °F 26.7 °F 29.90 in Calm   2.0 mph 92% 0.00 in 0 W/m2
05:52 28.7 °F 26.7 °F 29.90 in Calm     92% 0.00 in 0 W/m2
06:04 28.6 °F 26.6 °F 29.90 in Calm     92% 0.00 in 0 W/m2
06:16 28.7 °F 26.7 °F 29.91 in Calm     92% 0.00 in 0 W/m2
06:22 28.7 °F 26.7 °F 29.91 in Calm     92% 0.00 in 0 W/m2
06:28 28.7 °F 26.7 °F 29.92 in Calm   3.0 mph 92% 0.00 in 0 W/m2
06:34 28.7 °F 26.7 °F 29.91 in WSW 1.0 mph 3.0 mph 92% 0.00 in 0 W/m2
06:40 28.6 °F 26.6 °F 29.92 in WSW 1.0 mph 1.0 mph 92% 0.00 in 0 W/m2
06:52 28.0 °F 26.0 °F 29.92 in WNW 1.0 mph 1.0 mph 92% 0.00 in 0 W/m2
06:58 27.8 °F 25.8 °F 29.92 in WNW 1.0 mph 1.0 mph 92% 0.00 in 0 W/m2
07:04 27.8 °F 25.8 °F 29.92 in Calm   1.0 mph 92% 0.00 in 0 W/m2
07:10 27.7 °F 25.7 °F 29.92 in Calm     92% 0.00 in 0 W/m2
07:16 27.7 °F 25.7 °F 29.92 in Calm     92% 0.00 in 0 W/m2
07:22 27.7 °F 25.7 °F 29.92 in Calm     92% 0.00 in 0 W/m2
07:28 27.7 °F 25.7 °F 29.92 in Calm     92% 0.00 in 0 W/m2
07:34 27.6 °F 25.6 °F 29.92 in Calm     92% 0.00 in 5 W/m2
07:40 27.7 °F 25.9 °F 29.92 in Calm     93% 0.00 in 5 W/m2
07:52 28.1 °F 26.1 °F 29.93 in Calm   1.0 mph 92% 0.00 in 5 W/m2
07:58 28.4 °F 26.6 °F 29.93 in Calm   1.0 mph 93% 0.00 in 5 W/m2
08:04 28.6 °F 26.8 °F 29.92 in SW 1.0 mph 1.0 mph 93% 0.00 in 11 W/m2
08:10 28.8 °F 26.8 °F 29.92 in SW 1.0 mph 1.0 mph 92% 0.00 in 9 W/m2
09:32 31.0 °F 25.6 °F 29.93 in WSW 4.0 mph 5.0 mph 80% 0.00 in 30 W/m2
09:44 31.3 °F 25.2 °F 29.93 in WSW 5.0 mph 7.0 mph 78% 0.00 in 28 W/m2
09:56 31.6 °F 25.5 °F 29.93 in NNW 5.0 mph 5.0 mph 78% 0.00 in 35 W/m2
10:00 31.8 °F 25.4 °F 29.93 in SW 5.0 mph 5.0 mph 77% 0.00 in 35 W/m2
10:06 32.0 °F 25.3 °F 29.93 in WSW 5.0 mph 5.0 mph 76% 0.00 in 37 W/m2
10:12 32.2 °F 25.8 °F 29.93 in West 5.0 mph 8.0 mph 77% 0.00 in 35 W/m2
10:18 32.3 °F 25.6 °F 29.93 in SW 5.0 mph 8.0 mph 76% 0.00 in 35 W/m2
10:23 32.4 °F 25.7 °F 29.93 in SW 5.0 mph 9.0 mph 76% 0.00 in 35 W/m2
10:30 32.4 °F 25.7 °F 29.93 in WSW 5.0 mph 5.0 mph 76% 0.00 in 33 W/m2
10:36 32.5 °F 25.5 °F 29.93 in WSW 4.0 mph 7.0 mph 75% 0.00 in 33 W/m2
10:42 32.5 °F 25.5 °F 29.93 in West 4.0 mph 7.0 mph 75% 0.00 in 35 W/m2
10:48 32.7 °F 25.6 °F 29.93 in SW 4.0 mph 7.0 mph 75% 0.00 in 35 W/m2
11:00 32.8 °F 25.1 °F 29.93 in SW 4.0 mph 11.0 mph 73% 0.00 in 35 W/m2
11:06 32.9 °F 25.2 °F 29.93 in West 5.0 mph 11.0 mph 73% 0.00 in 37 W/m2
11:12 33.0 °F 25.0 °F 29.93 in WSW 4.0 mph 8.0 mph 72% 0.00 in 40 W/m2
11:18 33.1 °F 24.7 °F 29.93 in West 5.0 mph 8.0 mph 71% 0.00 in 42 W/m2
11:24 33.2 °F 24.8 °F 29.93 in West 5.0 mph 5.0 mph 71% 0.00 in 51 W/m2
11:36 33.6 °F 25.5 °F 29.93 in West 4.0 mph 5.0 mph 72% 0.00 in 54 W/m2
11:42 33.6 °F 25.2 °F 29.93 in West 4.0 mph 7.0 mph 71% 0.00 in 53 W/m2
11:54 33.6 °F 25.5 °F 29.93 in WSW 4.0 mph 4.0 mph 72% 0.00 in 56 W/m2
12:00 33.7 °F 25.3 °F 29.93 in West 5.0 mph 5.0 mph 71% 0.00 in 54 W/m2
12:06 33.7 °F 25.6 °F 29.93 in WSW 5.0 mph 7.0 mph 72% 0.00 in 44 W/m2
12:12 33.4 °F 26.0 °F 29.94 in West 4.0 mph 4.0 mph 74% 0.00 in 35 W/m2
12:18 33.0 °F 26.3 °F 29.94 in WSW 5.0 mph 16.0 mph 76% 0.00 in 30 W/m2
12:24 32.7 °F 26.3 °F 29.94 in WSW 5.0 mph 8.0 mph 77% 0.00 in 35 W/m2
12:30 32.6 °F 26.8 °F 29.94 in West 4.0 mph 4.0 mph 79% 0.00 in 42 W/m2
12:36 32.5 °F 27.0 °F 29.93 in WSW 5.0 mph 6.0 mph 80% 0.00 in 39 W/m2
12:42 32.5 °F 27.3 °F 29.94 in West 5.0 mph 5.0 mph 81% 0.00 in 32 W/m2
12:48 32.5 °F 27.3 °F 29.94 in WSW 3.0 mph 5.0 mph 81% 0.00 in 25 W/m2
12:54 32.6 °F 27.4 °F 29.94 in WSW 3.0 mph 5.0 mph 81% 0.00 in 25 W/m2
13:06 32.7 °F 27.2 °F 29.93 in SW 3.0 mph 4.0 mph 80% 0.00 in 16 W/m2
13:24 33.0 °F 27.5 °F 29.94 in WSW 4.0 mph 4.0 mph 80% 0.00 in 14 W/m2
13:30 33.0 °F 27.5 °F 29.93 in SW 3.0 mph 5.0 mph 80% 0.00 in 12 W/m2
13:36 33.0 °F 27.2 °F 29.93 in SW 3.0 mph 7.0 mph 79% 0.00 in 11 W/m2
13:48 32.9 °F 27.4 °F 29.93 in SW 3.0 mph 8.0 mph 80% 0.00 in 12 W/m2
13:56 32.8 °F 27.6 °F 29.93 in WSW 3.0 mph 4.0 mph 81% 0.00 in 14 W/m2
14:02 32.9 °F 27.7 °F 29.93 in SW 3.0 mph 3.0 mph 81% 0.00 in 14 W/m2
14:14 33.0 °F 27.8 °F 29.93 in SW 2.0 mph 4.0 mph 81% 0.00 in 16 W/m2
14:19 33.1 °F 27.9 °F 29.93 in SW 3.0 mph 3.0 mph 81% 0.00 in 16 W/m2
14:26 33.1 °F 27.6 °F 29.93 in SW 3.0 mph 5.0 mph 80% 0.00 in 12 W/m2
14:32 33.2 °F 27.7 °F 29.93 in WSW 3.0 mph 5.0 mph 80% 0.00 in 9 W/m2
14:38 33.2 °F 27.7 °F 29.93 in WSW 3.0 mph 7.0 mph 80% 0.00 in 7 W/m2
14:44 33.1 °F 27.6 °F 29.93 in WSW 3.0 mph 4.0 mph 80% 0.00 in 7 W/m2
14:50 33.1 °F 27.6 °F 29.93 in SW 3.0 mph 3.0 mph 80% 0.00 in 7 W/m2
14:56 33.2 °F 27.7 °F 29.93 in SW 3.0 mph 3.0 mph 80% 0.00 in 5 W/m2
15:08 33.3 °F 27.8 °F 29.93 in WSW 3.0 mph 5.0 mph 80% 0.00 in 5 W/m2
15:14 33.3 °F 28.1 °F 29.93 in SW 2.0 mph 3.0 mph 81% 0.00 in 5 W/m2
15:20 33.4 °F 28.2 °F 29.94 in West 2.0 mph 3.0 mph 81% 0.00 in 0 W/m2
15:26 33.5 °F 28.3 °F 29.94 in SSW 3.0 mph 3.0 mph 81% 0.00 in 0 W/m2
15:32 33.6 °F 28.4 °F 29.94 in WSW 3.0 mph 5.0 mph 81% 0.00 in 0 W/m2
15:38 33.6 °F 28.7 °F 29.94 in SW 2.0 mph 5.0 mph 82% 0.00 in 0 W/m2
16:08 33.9 °F 29.6 °F 29.95 in SW 3.0 mph 5.0 mph 84% 0.00 in 0 W/m2
16:26 34.0 °F 29.7 °F 29.95 in SW 2.0 mph 2.0 mph 84% 0.00 in 0 W/m2
16:32 34.1 °F 29.8 °F 29.95 in SW 2.0 mph 4.0 mph 84% 0.00 in 0 W/m2
16:38 34.1 °F 29.8 °F 29.96 in SW 2.0 mph 4.0 mph 84% 0.00 in 0 W/m2
16:44 34.2 °F 30.2 °F 29.96 in SW 2.0 mph 5.0 mph 85% 0.00 in 0 W/m2
16:56 34.3 °F 30.0 °F 29.96 in SSW 2.0 mph 4.0 mph 84% 0.00 in 0 W/m2
17:02 34.3 °F 30.3 °F 29.96 in SSW 2.0 mph 2.0 mph 85% 0.00 in 0 W/m2
17:08 34.3 °F 30.3 °F 29.96 in SSW 1.0 mph 2.0 mph 85% 0.00 in 0 W/m2
17:20 34.3 °F 30.3 °F 29.96 in Calm     85% 0.00 in 0 W/m2
17:26 34.3 °F 30.3 °F 29.96 in Calm   1.0 mph 85% 0.00 in 0 W/m2
17:38 34.2 °F 30.2 °F 29.95 in SSW 1.0 mph 2.0 mph 85% 0.00 in 0 W/m2
17:44 34.2 °F 30.2 °F 29.96 in SSW 1.0 mph 1.0 mph 85% 0.00 in 0 W/m2
17:50 34.2 °F 30.2 °F 29.96 in SSW 1.0 mph 1.0 mph 85% 0.00 in 0 W/m2
17:56 34.2 °F 30.2 °F 29.96 in Calm   2.0 mph 85% 0.00 in 0 W/m2
18:02 34.2 °F 30.2 °F 29.96 in Calm     85% 0.00 in 0 W/m2
18:08 34.2 °F 30.2 °F 29.96 in SSW 1.0 mph 1.0 mph 85% 0.00 in 0 W/m2
18:14 34.2 °F 30.2 °F 29.96 in SSW 1.0 mph 1.0 mph 85% 0.00 in 0 W/m2
18:20 33.9 °F 29.9 °F 29.96 in Calm     85% 0.00 in 0 W/m2
18:26 33.3 °F 29.3 °F 29.96 in Calm   1.0 mph 85% 0.00 in 0 W/m2
18:32 32.5 °F 28.8 °F 29.96 in Calm     86% 0.00 in 0 W/m2
18:44 31.5 °F 28.1 °F 29.96 in Calm     87% 0.00 in 0 W/m2
18:50 31.2 °F 27.8 °F 29.96 in Calm     87% 0.00 in 0 W/m2
19:02 31.0 °F 27.9 °F 29.96 in Calm     88% 0.00 in 0 W/m2
19:24 31.0 °F 28.1 °F 29.96 in Calm     89% 0.00 in 0 W/m2
19:30 31.0 °F 28.1 °F 29.96 in Calm     89% 0.00 in 0 W/m2
19:36 30.9 °F 28.3 °F 29.96 in Calm     90% 0.00 in 0 W/m2
19:42 30.8 °F 28.2 °F 29.96 in Calm     90% 0.00 in 0 W/m2
19:48 30.7 °F 28.1 °F 29.96 in Calm     90% 0.00 in 0 W/m2
19:54 30.5 °F 27.9 °F 29.96 in Calm     90% 0.00 in 0 W/m2
19:55 30.3 °F 27.7 °F 29.96 in Calm     90% 0.00 in 0 W/m2
20:02 30.1 °F 27.5 °F 29.96 in Calm     90% 0.00 in 0 W/m2
20:08 29.9 °F 27.3 °F 29.96 in Calm     90% 0.00 in 0 W/m2
20:13 29.6 °F 27.0 °F 29.95 in Calm     90% 0.00 in 0 W/m2
20:26 29.2 °F 26.6 °F 29.95 in Calm     90% 0.00 in 0 W/m2
20:32 29.2 °F 26.6 °F 29.95 in Calm     90% 0.00 in 0 W/m2
20:38 29.0 °F 26.7 °F 29.95 in Calm     91% 0.00 in 0 W/m2
20:44 28.9 °F 26.6 °F 29.95 in Calm     91% 0.00 in 0 W/m2
20:50 28.8 °F 26.5 °F 29.95 in Calm     91% 0.00 in 0 W/m2
21:02 28.4 °F 26.1 °F 29.95 in Calm     91% 0.00 in 0 W/m2
21:08 28.2 °F 25.9 °F 29.95 in Calm     91% 0.00 in 0 W/m2
21:14 28.0 °F 25.7 °F 29.95 in Calm     91% 0.00 in 0 W/m2
21:20 28.0 °F 25.7 °F 29.95 in Calm     91% 0.00 in 0 W/m2
21:26 27.9 °F 25.6 °F 29.95 in Calm     91% 0.00 in 0 W/m2
21:32 27.8 °F 25.5 °F 29.94 in Calm     91% 0.00 in 0 W/m2
21:38 27.8 °F 25.8 °F 29.94 in Calm     92% 0.00 in 0 W/m2
21:44 27.6 °F 25.3 °F 29.94 in Calm     91% 0.00 in 0 W/m2
21:50 27.6 °F 25.3 °F 29.94 in Calm     91% 0.00 in 0 W/m2
21:56 27.8 °F 25.8 °F 29.94 in Calm     92% 0.00 in 0 W/m2
22:02 27.8 °F 25.8 °F 29.94 in Calm     92% 0.00 in 0 W/m2
22:08 27.6 °F 25.6 °F 29.94 in Calm     92% 0.00 in 0 W/m2
22:18 27.6 °F 25.6 °F 29.94 in Calm     92% 0.00 in 0 W/m2
22:30 27.4 °F 25.4 °F 29.94 in Calm     92% 0.00 in 0 W/m2
22:42 27.1 °F 25.1 °F 29.93 in Calm     92% 0.00 in 0 W/m2
22:44 27.1 °F 25.1 °F 29.93 in Calm     92% 0.00 in 0 W/m2
22:46 27.1 °F 25.1 °F 29.93 in Calm     92% 0.00 in 0 W/m2
22:52 27.0 °F 25.0 °F 29.93 in Calm     92% 0.00 in 0 W/m2
23:04 27.1 °F 25.1 °F 29.93 in Calm     92% 0.00 in 0 W/m2
23:10 26.9 °F 24.9 °F 29.93 in Calm     92% 0.00 in 0 W/m2
23:22 26.8 °F 24.8 °F 29.93 in Calm     92% 0.00 in 0 W/m2
23:30 26.8 °F 24.8 °F 29.92 in Calm     92% 0.00 in 0 W/m2
23:36 26.8 °F 24.8 °F 29.92 in Calm     92% 0.00 in 0 W/m2
23:42 26.8 °F 24.8 °F 29.92 in Calm     92% 0.00 in 0 W/m2
23:54 26.7 °F 24.7 °F 29.92 in Calm     92% 0.00 in 0 W/m2
Country Meadow, Clay, NY, USA
Compliments of Weather Underground - 2 mb